»·PEaware :: CGVZB PAJN-PASI

CGVZB :: PAJN-PASI

FLIGHT INFORMATION

Flight Status: Arrived
Operator: Unknown
More flights by this operator :: More flights under this callsign
Pilot: Alan S. (10569)
Aircraft: BRITISH AERO BAe-3200 JETSTREAM SUPER 31
(JS32)
More flights by this aircraft type
Origin: PAJN Juneau Intl
United States
Destination: PASI Sitka Rocky Gutierrez
United States
More flights between these airports :: More routes between these airports
Route: LVD V473 BKA
File this flight plan on PilotEdge
Remarks: EQUIP / A @twitch.tv / aerosimgaming
Altitude:
(Current/Filed)
16,000ft
Speed:
(Current/Filed)
280kts
Departed: 31-May-16 10:34 PM
Arrived: 31-May-16 11:39 PM
Distance/Time
Traveled:
82nm/1:05
Distance/Time
To Go:
Arrived

Flight Plot

Page will automatically refresh every two minutes.


Map Options




Map Legend


Flown Route
Filed Route
Departure Airport
Arrival Airport
Navaid (VOR, NDB)
Fix

Horizontal Profiles

Position Reports

Time Latitude Longitude Heading Altitude Ground
Speed
31-May-16 22:16 58.358708 -134.587378 79 23ft 0kts
31-May-16 22:17 58.358708 -134.587378 79 23ft 0kts
31-May-16 22:18 58.358708 -134.587378 79 23ft 0kts
31-May-16 22:19 58.358708 -134.587378 79 23ft 0kts
31-May-16 22:20 58.358708 -134.587378 79 23ft 0kts
31-May-16 22:21 58.358728 -134.587168 78 23ft 0kts
31-May-16 22:22 58.358259 -134.587452 216 23ft 8kts
31-May-16 22:23 58.356953 -134.585049 105 23ft 9kts
31-May-16 22:24 58.356296 -134.580142 103 23ft 9kts
31-May-16 22:25 58.355589 -134.575123 103 23ft 9kts
31-May-16 22:26 58.354925 -134.570188 104 23ft 9kts
31-May-16 22:27 58.354233 -134.565294 103 23ft 11kts
31-May-16 22:28 58.353361 -134.559097 105 23ft 12kts
31-May-16 22:29 58.352163 -134.556222 282 23ft 0kts
31-May-16 22:30 58.352163 -134.556222 282 23ft 0kts
31-May-16 22:31 58.352163 -134.556222 282 23ft 0kts
31-May-16 22:32 58.353384 -134.565055 283 24ft 112kts
31-May-16 22:33 58.356270 -134.656101 271 1361ft 203kts
31-May-16 22:34 58.359050 -134.762529 272 3771ft 209kts
31-May-16 22:35 58.356670 -134.874114 244 5882ft 219kts
31-May-16 22:36 58.302631 -134.914263 161 7614ft 237kts
31-May-16 22:37 58.241127 -134.875964 159 9544ft 238kts
31-May-16 22:38 58.180001 -134.827900 159 10972ft 243kts
31-May-16 22:39 58.147314 -134.727834 97 12157ft 254kts
31-May-16 22:40 58.138873 -134.596378 97 13174ft 260kts
31-May-16 22:41 58.109408 -134.487256 152 14012ft 255kts
31-May-16 22:42 58.050135 -134.434008 162 14757ft 255kts
31-May-16 22:43 57.987511 -134.393488 152 15422ft 261kts
31-May-16 22:44 57.926009 -134.324447 155 15974ft 285kts
31-May-16 22:45 57.856585 -134.250945 155 15978ft 309kts
31-May-16 22:46 57.782557 -134.173163 155 15975ft 309kts
31-May-16 22:47 57.714763 -134.101956 154 15975ft 308kts
31-May-16 22:48 57.644276 -134.027995 154 15976ft 307kts
31-May-16 22:49 57.573658 -133.953998 154 15976ft 307kts
31-May-16 22:50 57.500983 -133.877962 154 15976ft 307kts
31-May-16 22:51 57.427672 -133.801383 154 15976ft 307kts
31-May-16 22:52 57.353588 -133.728512 162 15979ft 304kts
31-May-16 22:53 57.277172 -133.672168 162 15977ft 305kts
31-May-16 22:54 57.201815 -133.619053 162 15974ft 305kts
31-May-16 22:55 57.132315 -133.565197 161 15977ft 305kts
31-May-16 22:56 57.066020 -133.516226 162 15977ft 305kts
31-May-16 22:57 56.996852 -133.465477 162 15977ft 305kts
31-May-16 22:58 56.922020 -133.410810 162 15973ft 305kts
31-May-16 22:59 56.849912 -133.358353 162 15965ft 305kts
31-May-16 23:00 56.779546 -133.306705 162 15957ft 306kts
31-May-16 23:01 56.705131 -133.252934 162 15957ft 307kts
31-May-16 23:02 56.629303 -133.198461 162 15957ft 307kts
31-May-16 23:03 56.552623 -133.144382 171 15951ft 304kts
31-May-16 23:04 56.510114 -133.206631 272 15965ft 276kts
31-May-16 23:05 56.527616 -133.325296 285 15957ft 279kts
31-May-16 23:06 56.546397 -133.444138 285 15956ft 280kts
31-May-16 23:07 56.566916 -133.574656 285 15964ft 280kts
31-May-16 23:08 56.586547 -133.699082 284 15976ft 280kts
31-May-16 23:09 56.606104 -133.824228 284 15977ft 280kts
31-May-16 23:10 56.625818 -133.952418 284 15976ft 280kts
31-May-16 23:11 56.644994 -134.078141 284 15976ft 280kts
31-May-16 23:12 56.664031 -134.203888 284 15969ft 272kts
31-May-16 23:13 56.681406 -134.319553 284 15676ft 247kts
31-May-16 23:14 56.698996 -134.437522 284 14779ft 268kts
31-May-16 23:15 56.718138 -134.566788 284 13807ft 276kts
31-May-16 23:16 56.736583 -134.691060 284 12885ft 278kts
31-May-16 23:17 56.755059 -134.817006 284 11960ft 277kts
31-May-16 23:18 56.772656 -134.938445 283 11048ft 269kts
31-May-16 23:19 56.789755 -135.057445 282 10122ft 259kts
31-May-16 23:20 56.807308 -135.180553 282 9120ft 248kts
31-May-16 23:21 56.824338 -135.300941 282 8120ft 244kts
31-May-16 23:22 56.841122 -135.420496 282 7128ft 245kts
31-May-16 23:23 56.857816 -135.541181 282 6138ft 247kts
31-May-16 23:24 56.904428 -135.624994 329 5446ft 244kts
31-May-16 23:25 56.957784 -135.698851 320 4848ft 240kts
31-May-16 23:26 57.009374 -135.776287 320 4282ft 238kts
31-May-16 23:27 57.058508 -135.850449 320 4432ft 222kts
31-May-16 23:28 57.109356 -135.911883 345 4443ft 225kts
31-May-16 23:29 57.150339 -135.859076 80 4441ft 211kts
31-May-16 23:30 57.161368 -135.757916 80 4396ft 191kts
31-May-16 23:31 57.172900 -135.665839 76 4149ft 180kts
31-May-16 23:32 57.171385 -135.583664 135 3481ft 151kts
31-May-16 23:33 57.140449 -135.531875 132 2803ft 139kts
31-May-16 23:34 57.115043 -135.482068 133 1703ft 135kts
31-May-16 23:35 57.090432 -135.439861 133 954ft 115kts
31-May-16 23:36 57.067000 -135.397418 135 489ft 115kts
31-May-16 23:37 57.048573 -135.364130 136 24ft 32kts

Navigation Log

Ident Type
Flight plan parsing failed, navigation log unavailable